Livingston, South Carolina
Current Conditions -  °F | °C
As of 3:53 PM on Wednesday 26 Nov 2014 (Local Time) from KOGB Reporting Station
Few Clouds Few Clouds  
Wind Chill: 58°   Ceiling: Unl
Heat Index: 58°   Visibility: 10mi
Dew Point: 43°   Wind: 6mph
Humidity: 58%   Direction: 300°WNW
Pressure: 30.03"   Gusts: NA
Location:  33.538°N, 81.0853°W
Report Text: KOGB 262053Z AUTO 30005KT 10SM FEW050 14/06 A3003 RMK AO2 SLP167 T01440061 53004
Loading
Personal Weather Stations






























Interactive Weather Map New forecast layout! Learn more

10-Day Weather Forecast

Advertisements
Track Severe Weather on mobile